createdAt,value
2019-05-19T00:01:41.068Z,100088.80
2019-05-19T00:04:12.026Z,100087.60
2019-05-19T00:06:43.485Z,100094.82
2019-05-19T00:09:16.621Z,100094.95
2019-05-19T00:11:47.130Z,100089.73
2019-05-19T00:14:18.095Z,100091.13
2019-05-19T00:16:49.071Z,100083.22
2019-05-19T00:19:26.576Z,100077.91
2019-05-19T00:21:52.766Z,100079.34
2019-05-19T00:24:23.780Z,100072.74
2019-05-19T00:26:54.756Z,100067.05
2019-05-19T00:29:25.738Z,100067.11
2019-05-19T00:31:56.670Z,100070.39
2019-05-19T00:34:27.663Z,100077.55
2019-05-19T00:36:58.643Z,100074.52
2019-05-19T00:39:29.740Z,100070.22
2019-05-19T00:42:00.708Z,100073.41
2019-05-19T00:44:31.704Z,100072.20
2019-05-19T00:47:02.673Z,100078.48
2019-05-19T00:49:41.515Z,100070.17
2019-05-19T00:52:06.312Z,100072.44
2019-05-19T00:54:37.307Z,100067.73
2019-05-19T00:57:08.350Z,100067.73
2019-05-19T00:59:39.479Z,100068.27
2019-05-19T01:02:10.473Z,100062.63
2019-05-19T01:04:41.441Z,100064.90
2019-05-19T01:07:12.454Z,100060.98
2019-05-19T01:09:44.702Z,100058.02
2019-05-19T01:12:15.694Z,100053.67
2019-05-19T01:14:46.684Z,100055.53
2019-05-19T01:17:18.933Z,100051.59
2019-05-19T01:19:56.012Z,100048.03
2019-05-19T01:22:22.665Z,100050.30
2019-05-19T01:24:53.668Z,100046.87
2019-05-19T01:27:24.717Z,100049.61
2019-05-19T01:29:55.676Z,100045.26
2019-05-19T01:32:26.655Z,100052.46
2019-05-19T01:34:57.628Z,100050.33
2019-05-19T01:37:28.635Z,100053.98
2019-05-19T01:40:00.698Z,100052.30
2019-05-19T01:42:31.679Z,100049.73
2019-05-19T01:45:02.732Z,100048.39
2019-05-19T01:47:33.693Z,100040.03
2019-05-19T01:50:17.548Z,100039.61
2019-05-19T01:52:39.341Z,100040.61
2019-05-19T01:55:10.649Z,100044.68
2019-05-19T01:57:41.614Z,100044.34
2019-05-19T02:00:13.650Z,100035.07
2019-05-19T02:02:44.641Z,100038.20
2019-05-19T02:05:15.824Z,100033.86
2019-05-19T02:07:46.828Z,100041.94
2019-05-19T02:10:17.897Z,100037.59
2019-05-19T02:12:48.913Z,100029.61
2019-05-19T02:15:21.168Z,100030.15
2019-05-19T02:17:52.132Z,100032.45
2019-05-19T02:20:32.618Z,100028.95
2019-05-19T02:22:57.032Z,100032.55
2019-05-19T02:25:27.998Z,100032.55
2019-05-19T02:27:59.338Z,100036.56
2019-05-19T02:30:30.311Z,100043.30
2019-05-19T02:33:01.352Z,100041.08
2019-05-19T02:35:32.335Z,100039.36
2019-05-19T02:38:03.309Z,100044.30
2019-05-19T02:40:34.947Z,100038.53
2019-05-19T02:43:05.927Z,100042.55
2019-05-19T02:45:37.661Z,100043.55
2019-05-19T02:48:08.702Z,100047.61
2019-05-19T02:50:51.462Z,100041.38
2019-05-19T02:53:12.904Z,100044.09
2019-05-19T02:55:45.144Z,100037.53
2019-05-19T02:58:16.382Z,100046.48
2019-05-19T03:00:47.377Z,100043.47
2019-05-19T03:03:18.343Z,100038.70
2019-05-19T03:05:49.354Z,100032.60
2019-05-19T03:08:20.316Z,100047.77
2019-05-19T03:10:51.288Z,100039.33
2019-05-19T03:13:22.264Z,100049.20
2019-05-19T03:15:53.225Z,100046.14
2019-05-19T03:18:24.213Z,100051.95
2019-05-19T03:21:09.880Z,100047.56
2019-05-19T03:23:27.842Z,100052.45
2019-05-19T03:25:58.803Z,100048.03
2019-05-19T03:28:29.787Z,100056.12
2019-05-19T03:31:18.644Z,100047.69
2019-05-19T03:33:51.238Z,100052.16
2019-05-19T03:36:22.202Z,100056.75
2019-05-19T03:38:53.177Z,100054.58
2019-05-19T03:41:25.153Z,100052.86
2019-05-19T03:43:56.127Z,100051.52
2019-05-19T03:46:27.096Z,100047.52
2019-05-19T03:48:58.715Z,100065.81
2019-05-19T03:51:32.040Z,100068.06
2019-05-19T03:54:03.123Z,100068.06
2019-05-19T03:56:34.101Z,100064.17
2019-05-19T03:59:05.090Z,100064.64
2019-05-19T04:01:36.075Z,100062.00
2019-05-19T04:04:07.072Z,100067.35
2019-05-19T04:06:38.049Z,100065.59
2019-05-19T04:09:09.043Z,100061.20
2019-05-19T04:11:40.055Z,100054.98
2019-05-19T04:14:11.024Z,100051.84
2019-05-19T04:16:41.997Z,100055.78
2019-05-19T04:19:12.990Z,100062.92
2019-05-19T04:21:48.828Z,100057.08
2019-05-19T04:24:17.086Z,100056.61
2019-05-19T04:26:48.051Z,100057.87
2019-05-19T04:29:19.107Z,100064.06
2019-05-19T04:31:50.117Z,100071.58
2019-05-19T04:34:21.097Z,100069.70
2019-05-19T04:36:52.122Z,100070.13
2019-05-19T04:39:23.112Z,100081.11
2019-05-19T04:41:54.091Z,100074.39
2019-05-19T04:44:26.367Z,100071.13
2019-05-19T04:46:57.332Z,100073.73
2019-05-19T04:49:28.353Z,100078.58
2019-05-19T04:52:06.624Z,100074.44
2019-05-19T04:54:32.002Z,100076.56
2019-05-19T04:57:02.992Z,100075.06
2019-05-19T04:59:33.967Z,100072.69
2019-05-19T05:02:04.950Z,100072.52
2019-05-19T05:04:35.962Z,100076.82
2019-05-19T05:07:06.958Z,100081.59
2019-05-19T05:09:39.246Z,100082.33
2019-05-19T05:12:10.231Z,100081.33
2019-05-19T05:14:41.223Z,100085.13
2019-05-19T05:17:12.200Z,100079.59
2019-05-19T05:19:43.198Z,100082.44
2019-05-19T05:22:21.826Z,100072.39
2019-05-19T05:24:46.867Z,100069.95
2019-05-19T05:27:17.835Z,100071.39
2019-05-19T05:29:48.826Z,100067.53
2019-05-19T05:32:19.818Z,100066.75
2019-05-19T05:34:50.799Z,100072.34
2019-05-19T05:37:21.788Z,100068.09
2019-05-19T05:39:53.431Z,100070.97
2019-05-19T05:42:24.479Z,100062.28
2019-05-19T05:44:55.531Z,100065.70
2019-05-19T05:47:26.525Z,100072.66
2019-05-19T05:49:57.514Z,100065.30
2019-05-19T05:52:37.934Z,100060.69
2019-05-19T05:55:01.169Z,100058.28
2019-05-19T05:57:32.165Z,100060.77
2019-05-19T06:00:03.694Z,100062.00
2019-05-19T06:02:34.704Z,100061.86
2019-05-19T06:05:06.691Z,100057.70
2019-05-19T06:07:38.769Z,100057.05
2019-05-19T06:10:10.853Z,100057.78
2019-05-19T06:12:41.818Z,100061.61
2019-05-19T06:15:12.944Z,100059.55
2019-05-19T06:17:44.100Z,100054.40
2019-05-19T06:20:15.140Z,100057.61
2019-05-19T06:22:56.028Z,100055.98
2019-05-19T06:25:18.808Z,100056.14
2019-05-19T06:27:49.845Z,100056.81
2019-05-19T06:30:20.903Z,100050.83
2019-05-19T06:32:53.606Z,100050.63
2019-05-19T06:35:25.215Z,100050.92
2019-05-19T06:37:56.318Z,100045.28
2019-05-19T06:40:27.279Z,100050.30
2019-05-19T06:42:58.292Z,100050.41
2019-05-19T06:45:29.324Z,100046.05
2019-05-19T06:48:00.285Z,100051.52
2019-05-19T06:50:31.267Z,100041.84
2019-05-19T06:53:13.561Z,100053.09
2019-05-19T06:55:34.975Z,100046.88
2019-05-19T06:58:05.974Z,100046.91
2019-05-19T07:00:37.967Z,100051.85
2019-05-19T07:03:08.970Z,100049.63
2019-05-19T07:05:39.938Z,100042.94
2019-05-19T07:08:10.925Z,100040.02
2019-05-19T07:10:41.897Z,100041.20
2019-05-19T07:13:12.861Z,100044.54
2019-05-19T07:15:43.845Z,100041.16
2019-05-19T07:18:14.823Z,100036.02
2019-05-19T07:20:45.801Z,100037.84
2019-05-19T07:23:36.590Z,100039.20
2019-05-19T07:26:07.573Z,100040.48
2019-05-19T07:28:38.595Z,100037.26
2019-05-19T07:31:09.568Z,100034.90
2019-05-19T07:33:44.615Z,100034.82
2019-05-19T07:36:15.563Z,100037.20
2019-05-19T07:38:49.809Z,100039.25
2019-05-19T07:41:20.782Z,100037.09
2019-05-19T07:43:52.142Z,100034.88
2019-05-19T07:46:23.094Z,100029.01
2019-05-19T07:48:54.082Z,100032.55
2019-05-19T07:51:25.065Z,100032.02
2019-05-19T07:53:56.108Z,100030.75
2019-05-19T07:56:28.733Z,100029.48
2019-05-19T07:59:00.673Z,100034.14
2019-05-19T08:01:32.435Z,100029.44
2019-05-19T08:04:03.394Z,100029.59
2019-05-19T08:06:34.730Z,100028.38
2019-05-19T08:09:06.919Z,100026.78
2019-05-19T08:11:41.908Z,100029.69
2019-05-19T08:14:15.639Z,100026.81
2019-05-19T08:16:46.677Z,100014.64
2019-05-19T08:19:19.300Z,100012.28
2019-05-19T08:21:51.199Z,100012.55
2019-05-19T08:24:22.201Z,100008.05
2019-05-19T08:26:53.241Z,100004.56
2019-05-19T08:29:24.275Z,100008.23
2019-05-19T08:31:55.293Z,100011.13
2019-05-19T08:34:26.355Z,100000.86
2019-05-19T08:36:57.351Z,100010.99
2019-05-19T08:39:28.357Z,100003.62
2019-05-19T08:42:04.711Z,100001.71
2019-05-19T08:44:38.118Z,100002.59
2019-05-19T08:47:09.146Z,99997.78
2019-05-19T08:49:44.291Z,100004.00
2019-05-19T08:52:15.262Z,100004.59
2019-05-19T08:54:46.259Z,100003.34
2019-05-19T08:57:17.409Z,100004.89
2019-05-19T08:59:48.579Z,100003.13
2019-05-19T09:02:19.556Z,99998.63
2019-05-19T09:04:50.547Z,99998.80
2019-05-19T09:07:21.515Z,100001.88
2019-05-19T09:09:52.512Z,99991.48
2019-05-19T09:12:23.502Z,99995.90
2019-05-19T09:14:54.493Z,99993.51
2019-05-19T09:17:25.444Z,99992.31
2019-05-19T09:19:57.185Z,99991.23
2019-05-19T09:22:28.187Z,99982.12
2019-05-19T09:24:59.178Z,99982.77
2019-05-19T09:27:30.150Z,99983.03
2019-05-19T09:30:01.588Z,99974.00
2019-05-19T09:32:32.644Z,99978.70
2019-05-19T09:35:03.998Z,99971.77
2019-05-19T09:37:35.354Z,99965.68
2019-05-19T09:40:13.691Z,99961.05
2019-05-19T09:42:44.680Z,99959.73
2019-05-19T09:45:15.911Z,99953.53
2019-05-19T09:47:46.910Z,99955.92
2019-05-19T09:50:18.976Z,99955.77
2019-05-19T09:52:51.007Z,99951.07
2019-05-19T09:55:21.981Z,99952.20
2019-05-19T09:57:52.961Z,99958.48
2019-05-19T10:00:24.131Z,99955.10
2019-05-19T10:02:55.102Z,99960.88
2019-05-19T10:05:26.057Z,99958.39
2019-05-19T10:07:57.505Z,99957.27
2019-05-19T10:10:39.279Z,99951.20
2019-05-19T10:13:10.260Z,99950.42
2019-05-19T10:15:41.229Z,99948.62
2019-05-19T10:18:12.223Z,99948.45
2019-05-19T10:20:43.182Z,99946.45
2019-05-19T10:23:14.161Z,99946.55
2019-05-19T10:25:45.118Z,99947.71
2019-05-19T10:28:16.108Z,99943.02
2019-05-19T10:30:47.133Z,99945.82
2019-05-19T10:33:18.102Z,99945.95
2019-05-19T10:35:49.085Z,99941.59
2019-05-19T10:38:20.062Z,99943.42
2019-05-19T10:40:51.013Z,99936.71
2019-05-19T10:43:21.994Z,99937.02
2019-05-19T10:46:03.270Z,99942.84
2019-05-19T10:48:34.223Z,99940.34
2019-05-19T10:51:05.241Z,99934.50
2019-05-19T10:53:36.187Z,99930.86
2019-05-19T10:56:07.209Z,99925.73
2019-05-19T10:58:38.356Z,99921.69
2019-05-19T11:01:09.387Z,99925.73
2019-05-19T11:03:40.453Z,99928.34
2019-05-19T11:06:11.419Z,99924.95
2019-05-19T11:08:42.380Z,99925.72
2019-05-19T11:11:13.351Z,99921.02
2019-05-19T11:13:44.337Z,99917.96
2019-05-19T11:16:15.293Z,99913.52
2019-05-19T11:18:46.295Z,99920.92
2019-05-19T11:21:17.315Z,99927.73
2019-05-19T11:23:49.050Z,99914.31
2019-05-19T11:26:20.048Z,99913.73
2019-05-19T11:28:51.000Z,99906.00
2019-05-19T11:31:21.964Z,99914.14
2019-05-19T11:33:53.310Z,99906.03
2019-05-19T11:36:24.267Z,99908.31
2019-05-19T11:38:55.225Z,99906.72
2019-05-19T11:41:26.198Z,99898.70
2019-05-19T11:43:57.964Z,99893.41
2019-05-19T11:46:29.036Z,99897.39
2019-05-19T11:49:00.092Z,99894.56
2019-05-19T11:51:31.186Z,99889.39
2019-05-19T11:54:02.247Z,99885.44
2019-05-19T11:56:33.339Z,99877.69
2019-05-19T11:59:04.384Z,99889.44
2019-05-19T12:01:35.487Z,99894.98
2019-05-19T12:04:06.565Z,99890.41
2019-05-19T12:06:40.008Z,99890.70
2019-05-19T12:09:11.384Z,99894.63
2019-05-19T12:11:42.434Z,99889.06
2019-05-19T12:14:13.503Z,99882.50
2019-05-19T12:16:44.582Z,99883.98
2019-05-19T12:19:15.661Z,99880.71
2019-05-19T12:21:46.733Z,99878.23
2019-05-19T12:24:17.831Z,99881.20
2019-05-19T12:26:48.945Z,99868.97
2019-05-19T12:29:20.518Z,99867.24
2019-05-19T12:31:52.646Z,99863.73
2019-05-19T12:34:24.807Z,99863.36
2019-05-19T12:36:55.871Z,99863.50
2019-05-19T12:39:26.955Z,99859.90
2019-05-19T12:41:58.013Z,99868.27
2019-05-19T12:44:29.085Z,99858.59
2019-05-19T12:47:00.629Z,99857.61
2019-05-19T12:49:31.723Z,99865.89
2019-05-19T12:52:02.787Z,99860.98
2019-05-19T12:54:33.925Z,99857.30
2019-05-19T12:57:05.065Z,99857.69
2019-05-19T12:59:36.157Z,99854.59
2019-05-19T13:02:07.215Z,99851.38
2019-05-19T13:04:38.505Z,99852.25
2019-05-19T13:07:09.755Z,99856.32
2019-05-19T13:09:40.827Z,99850.13
2019-05-19T13:12:11.897Z,99845.57
2019-05-19T13:14:42.960Z,99839.27
2019-05-19T13:17:14.021Z,99844.48
2019-05-19T13:19:45.106Z,99847.43
2019-05-19T13:22:16.160Z,99839.28
2019-05-19T13:24:47.233Z,99839.42
2019-05-19T13:27:18.425Z,99835.69
2019-05-19T13:29:49.475Z,99828.51
2019-05-19T13:32:20.525Z,99824.30
2019-05-19T13:34:51.596Z,99829.99
2019-05-19T13:37:22.652Z,99832.55
2019-05-19T13:39:54.091Z,99834.12
2019-05-19T13:42:25.144Z,99832.25
2019-05-19T13:44:56.209Z,99824.41
2019-05-19T13:47:27.257Z,99836.15
2019-05-19T13:49:58.327Z,99827.12
2019-05-19T13:52:29.383Z,99823.31
2019-05-19T13:55:00.453Z,99830.11
2019-05-19T13:57:31.513Z,99821.08
2019-05-19T14:00:02.657Z,99821.06
2019-05-19T14:02:33.737Z,99819.80
2019-05-19T14:05:05.342Z,99830.78
2019-05-19T14:07:37.493Z,99822.41
2019-05-19T14:10:09.197Z,99817.36
2019-05-19T14:12:40.255Z,99815.86
2019-05-19T14:15:11.621Z,99814.28
2019-05-19T14:17:42.684Z,99813.41
2019-05-19T14:20:14.583Z,99822.44
2019-05-19T14:22:45.650Z,99813.69
2019-05-19T14:25:17.400Z,99810.10
2019-05-19T14:27:48.456Z,99818.87
2019-05-19T14:30:20.493Z,99820.01
2019-05-19T14:32:51.553Z,99813.48
2019-05-19T14:35:22.624Z,99812.26
2019-05-19T14:37:53.724Z,99817.71
2019-05-19T14:40:24.773Z,99825.05
2019-05-19T14:43:00.166Z,99828.76
2019-05-19T14:45:31.328Z,99827.90
2019-05-19T14:48:02.414Z,99826.43
2019-05-19T14:50:33.482Z,99824.09
2019-05-19T14:53:04.549Z,99829.53
2019-05-19T14:55:35.638Z,99828.55
2019-05-19T14:58:06.710Z,99822.86
2019-05-19T15:00:38.827Z,99819.05
2019-05-19T15:03:10.687Z,99827.47
2019-05-19T15:05:41.757Z,99822.63
2019-05-19T15:08:13.481Z,99831.42
2019-05-19T15:10:45.489Z,99833.50
2019-05-19T15:13:17.311Z,99825.99
2019-05-19T15:15:48.369Z,99831.54
2019-05-19T15:18:19.436Z,99833.16
2019-05-19T15:20:50.527Z,99824.52
2019-05-19T15:23:21.607Z,99828.22
2019-05-19T15:25:52.685Z,99824.77
2019-05-19T15:28:23.769Z,99820.70
2019-05-19T15:30:54.826Z,99827.23
2019-05-19T15:33:25.923Z,99814.78
2019-05-19T15:35:57.449Z,99815.27
2019-05-19T15:38:28.507Z,99822.17
2019-05-19T15:40:59.598Z,99817.45
2019-05-19T15:43:30.653Z,99808.06
2019-05-19T15:46:01.716Z,99808.06
2019-05-19T15:48:32.798Z,99795.84
2019-05-19T15:51:03.866Z,99795.49
2019-05-19T15:53:34.939Z,99793.77
2019-05-19T15:56:06.003Z,99787.95
2019-05-19T15:58:37.752Z,99791.53
2019-05-19T16:01:08.812Z,99788.33
2019-05-19T16:03:39.883Z,99779.80
2019-05-19T16:06:10.969Z,99783.39
2019-05-19T16:08:42.027Z,99780.18
2019-05-19T16:11:13.095Z,99774.75
2019-05-19T16:13:44.193Z,99778.07
2019-05-19T16:16:15.327Z,99777.98
2019-05-19T16:18:46.427Z,99773.05
2019-05-19T16:21:17.567Z,99768.98
2019-05-19T16:23:48.654Z,99777.12
2019-05-19T16:26:19.752Z,99767.70
2019-05-19T16:28:50.810Z,99768.68
2019-05-19T16:31:21.909Z,99779.20
2019-05-19T16:33:52.970Z,99773.39
2019-05-19T16:36:24.029Z,99768.07
2019-05-19T16:38:55.853Z,99764.98
2019-05-19T16:41:26.984Z,99770.94
2019-05-19T16:43:58.034Z,99760.30
2019-05-19T16:46:29.129Z,99752.30
2019-05-19T16:49:01.584Z,99764.26
2019-05-19T16:51:32.699Z,99765.23
2019-05-19T16:54:05.381Z,99760.82
2019-05-19T16:56:36.511Z,99761.05
2019-05-19T16:59:07.583Z,99757.98
2019-05-19T17:01:38.702Z,99757.72
2019-05-19T17:04:09.805Z,99764.63
2019-05-19T17:06:40.870Z,99766.50
2019-05-19T17:09:11.945Z,99767.59
2019-05-19T17:11:43.036Z,99763.78
2019-05-19T17:14:14.317Z,99761.44
2019-05-19T17:16:45.452Z,99759.47
2019-05-19T17:19:16.508Z,99755.63
2019-05-19T17:21:48.665Z,99761.31
2019-05-19T17:27:26.566Z,99768.84
2019-05-19T17:30:00.271Z,99766.87
2019-05-19T17:32:32.445Z,99767.94
2019-05-19T17:35:04.397Z,99760.52
2019-05-19T17:37:39.349Z,99767.41
2019-05-19T17:40:11.712Z,99768.64
2019-05-19T17:42:44.578Z,99762.59
2019-05-19T17:45:16.502Z,99773.70
2019-05-19T17:47:47.637Z,99771.72
2019-05-19T17:50:31.641Z,99774.31
2019-05-19T17:53:03.866Z,99770.45
2019-05-19T17:55:36.472Z,99772.31
2019-05-19T17:58:08.625Z,99770.83
2019-05-19T18:00:44.267Z,99772.54
2019-05-19T18:03:15.473Z,99774.59
2019-05-19T18:05:46.597Z,99775.44
2019-05-19T18:08:17.704Z,99781.98
2019-05-19T18:10:49.849Z,99779.51
2019-05-19T18:13:31.819Z,99779.23
2019-05-19T18:16:14.367Z,99779.97
2019-05-19T18:18:50.558Z,99782.06
2019-05-19T18:21:21.630Z,99785.09
2019-05-19T18:23:52.713Z,99788.14
2019-05-19T18:26:29.476Z,99787.87
2019-05-19T18:29:00.534Z,99780.47
2019-05-19T18:31:31.639Z,99787.59
2019-05-19T18:34:03.466Z,99778.45
2019-05-19T18:36:34.545Z,99789.53
2019-05-19T18:39:07.066Z,99781.26
2019-05-19T18:41:38.683Z,99789.63
2019-05-19T18:44:09.796Z,99790.31
2019-05-19T18:46:40.898Z,99790.66
2019-05-19T18:49:11.973Z,99794.96
2019-05-19T18:51:44.103Z,99791.72
2019-05-19T18:54:15.167Z,99798.84
2019-05-19T18:57:07.557Z,99793.66
2019-05-19T19:00:24.636Z,99792.64
2019-05-19T19:02:51.792Z,99799.81
2019-05-19T19:05:23.935Z,99793.95
2019-05-19T19:07:55.483Z,99796.61
2019-05-19T19:10:26.581Z,99795.58
2019-05-19T19:12:57.725Z,99800.84
2019-05-19T19:15:28.807Z,99799.95
2019-05-19T19:17:59.886Z,99809.23
2019-05-19T19:20:34.401Z,99809.21
2019-05-19T19:23:05.051Z,99811.37
2019-05-19T19:25:36.002Z,99812.61
2019-05-19T19:28:22.084Z,99805.97
2019-05-19T19:31:17.872Z,99811.67
2019-05-19T19:33:49.601Z,99814.89
2019-05-19T19:36:20.655Z,99819.40
2019-05-19T19:38:54.205Z,99820.59
2019-05-19T19:41:25.275Z,99815.75
2019-05-19T19:43:57.254Z,99819.55
2019-05-19T19:46:28.408Z,99818.30
2019-05-19T19:48:59.460Z,99824.28
2019-05-19T19:51:30.529Z,99830.30
2019-05-19T19:54:01.924Z,99830.00
2019-05-19T19:56:33.147Z,99829.27
2019-05-19T19:59:04.232Z,99830.23
2019-05-19T20:01:35.292Z,99827.27
2019-05-19T20:04:06.348Z,99830.93
2019-05-19T20:06:37.418Z,99828.80
2019-05-19T20:09:08.538Z,99835.20
2019-05-19T20:11:39.683Z,99838.48
2019-05-19T20:14:15.323Z,99840.80
2019-05-19T20:16:47.483Z,99851.26
2019-05-19T20:19:18.543Z,99867.66
2019-05-19T20:21:49.589Z,99866.62
2019-05-19T20:24:20.642Z,99865.48
2019-05-19T20:26:51.863Z,99859.78
2019-05-19T20:29:23.222Z,99870.33
2019-05-19T20:31:54.299Z,99867.14
2019-05-19T20:34:25.359Z,99869.84
2019-05-19T20:36:56.428Z,99874.38
2019-05-19T20:39:27.488Z,99869.84
2019-05-19T20:41:58.561Z,99871.77
2019-05-19T20:44:29.636Z,99872.37
2019-05-19T20:47:00.705Z,99869.38
2019-05-19T20:49:31.761Z,99864.96
2019-05-19T20:52:03.298Z,99872.16
2019-05-19T20:54:34.352Z,99860.58
2019-05-19T20:57:05.413Z,99862.89
2019-05-19T20:59:36.473Z,99857.13
2019-05-19T21:02:07.536Z,99868.89
2019-05-19T21:04:38.652Z,99862.05
2019-05-19T21:07:09.693Z,99862.89
2019-05-19T21:09:40.807Z,99863.02
2019-05-19T21:12:11.840Z,99860.40
2019-05-19T21:14:43.956Z,99861.84
2019-05-19T21:17:15.029Z,99867.38
2019-05-19T21:19:46.090Z,99872.38
2019-05-19T21:22:17.154Z,99867.46
2019-05-19T21:24:48.243Z,99871.13
2019-05-19T21:27:19.301Z,99867.19
2019-05-19T21:29:50.413Z,99870.86
2019-05-19T21:32:21.478Z,99865.66
2019-05-19T21:34:52.544Z,99873.38
2019-05-19T21:37:23.696Z,99875.30
2019-05-19T21:39:54.750Z,99876.38
2019-05-19T21:42:26.771Z,99865.19
2019-05-19T21:44:57.835Z,99872.90
2019-05-19T21:47:28.978Z,99869.92
2019-05-19T21:50:00.036Z,99864.34
2019-05-19T21:52:31.122Z,99868.97
2019-05-19T21:55:03.827Z,99875.93
2019-05-19T21:57:34.891Z,99872.09
2019-05-19T22:00:09.713Z,99868.22
2019-05-19T22:02:40.774Z,99865.72
2019-05-19T22:05:12.087Z,99870.55
2019-05-19T22:07:50.617Z,99866.79
2019-05-19T22:10:21.936Z,99875.97
2019-05-19T22:12:53.020Z,99870.87
2019-05-19T22:15:24.271Z,99874.81
2019-05-19T22:17:56.292Z,99871.33
2019-05-19T22:20:27.393Z,99877.30
2019-05-19T22:22:58.449Z,99877.47
2019-05-19T22:25:29.504Z,99870.44
2019-05-19T22:28:00.600Z,99873.23
2019-05-19T22:30:31.659Z,99877.48
2019-05-19T22:33:04.179Z,99881.13
2019-05-19T22:35:35.245Z,99882.69
2019-05-19T22:38:09.322Z,99881.06
2019-05-19T22:40:39.179Z,99880.28
2019-05-19T22:43:10.216Z,99880.00
2019-05-19T22:45:41.276Z,99883.73
2019-05-19T22:48:12.355Z,99878.55
2019-05-19T22:50:45.275Z,99877.36
2019-05-19T22:53:16.342Z,99882.88
2019-05-19T22:55:47.408Z,99884.31
2019-05-19T22:58:18.479Z,99873.24
2019-05-19T23:00:49.545Z,99874.76
2019-05-19T23:03:20.587Z,99873.05
2019-05-19T23:05:51.649Z,99870.44
2019-05-19T23:08:23.286Z,99875.91
2019-05-19T23:10:54.341Z,99872.94
2019-05-19T23:13:25.411Z,99882.07
2019-05-19T23:15:56.483Z,99874.17
2019-05-19T23:18:27.558Z,99870.72
2019-05-19T23:20:59.589Z,99864.14
2019-05-19T23:23:30.659Z,99856.65
2019-05-19T23:26:01.752Z,99860.50
2019-05-19T23:28:32.821Z,99856.25
2019-05-19T23:31:03.907Z,99853.25
2019-05-19T23:33:35.000Z,99855.16
2019-05-19T23:36:06.071Z,99849.84
2019-05-19T23:38:37.188Z,99848.18
2019-05-19T23:41:09.245Z,99851.87
2019-05-19T23:43:40.329Z,99850.59
2019-05-19T23:46:11.430Z,99853.09
2019-05-19T23:48:43.578Z,99851.47
2019-05-19T23:51:14.710Z,99852.10
2019-05-19T23:53:45.786Z,99851.91
2019-05-19T23:56:16.851Z,99853.45
2019-05-19T23:58:52.509Z,99851.78
